Time;durP1;ratioP1;P1;durP2;ratioP2;P2;SDS_P1;SDS_P2;PMS_P1;PMS_P2;Temp;Humidity;BMP_temperature;BMP_pressure;BME280_temperature;BME280_humidity;BME280_pressure;Samples;Min_cycle;Max_cycle;Signal;HPM_P1;HPM_P2
2021/11/08 00:01:04;;;;;;;10.50;3.23;;;9.80;99.90;;;;;;5034931;28;20455;-48
2021/11/08 00:03:35;;;;;;;19.70;3.33;;;9.40;99.90;;;;;;5034978;28;20428;-48
2021/11/08 00:06:04;;;;;;;12.03;3.10;;;9.90;99.90;;;;;;5035597;28;20419;-48
2021/11/08 00:08:32;;;;;;;10.80;3.20;;;10.10;99.90;;;;;;5034790;28;20463;-48
2021/11/08 00:10:58;;;;;;;14.03;4.30;;;10.00;99.90;;;;;;5034943;28;20550;-48
2021/11/08 00:13:26;;;;;;;12.20;3.60;;;10.20;99.90;;;;;;5034917;28;20970;-48
2021/11/08 00:16:03;;;;;;;12.83;4.00;;;10.10;99.90;;;;;;5034912;28;20475;-48
2021/11/08 00:18:35;;;;;;;12.67;3.67;;;9.90;99.90;;;;;;5034524;28;20431;-48
2021/11/08 00:21:03;;;;;;;17.20;3.70;;;9.80;99.90;;;;;;5034777;28;20459;-48
2021/11/08 00:23:31;;;;;;;10.27;3.30;;;9.90;99.90;;;;;;5034750;28;20454;-48
2021/11/08 00:25:58;;;;;;;15.50;4.37;;;9.90;99.90;;;;;;5034920;28;20435;-48
2021/11/08 00:28:25;;;;;;;10.30;3.10;;;10.20;99.90;;;;;;5034315;28;20434;-48
2021/11/08 00:30:54;;;;;;;15.00;3.60;;;10.00;99.90;;;;;;5034408;28;20489;-48
2021/11/08 00:33:23;;;;;;;10.13;2.90;;;10.00;99.90;;;;;;5035078;28;20468;-49
2021/11/08 00:35:51;;;;;;;12.13;3.37;;;9.90;99.90;;;;;;5034017;28;20461;-49
2021/11/08 00:38:20;;;;;;;13.40;3.53;;;9.70;99.90;;;;;;5034066;28;20514;-49
2021/11/08 00:40:48;;;;;;;16.13;3.10;;;10.10;99.90;;;;;;5034434;28;20442;-49
2021/11/08 00:43:14;;;;;;;10.27;3.07;;;9.40;99.90;;;;;;5034560;28;20435;-49
2021/11/08 00:45:42;;;;;;;10.27;3.03;;;10.40;99.90;;;;;;5034259;28;20447;-49
2021/11/08 00:48:09;;;;;;;11.63;3.00;;;9.80;99.90;;;;;;5034063;28;20779;-49
2021/11/08 00:50:36;;;;;;;12.93;3.50;;;9.80;99.90;;;;;;5034299;28;20642;-49
2021/11/08 00:53:05;;;;;;;13.87;3.90;;;9.80;99.90;;;;;;5039059;28;20447;-49
2021/11/08 00:55:33;;;;;;;13.30;3.40;;;9.40;99.90;;;;;;5034221;28;20475;-49
2021/11/08 00:58:01;;;;;;;12.63;3.20;;;10.20;99.90;;;;;;5033807;28;20936;-50
2021/11/08 01:00:30;;;;;;;9.90;3.37;;;9.60;99.90;;;;;;5033965;28;20467;-49
2021/11/08 01:02:58;;;;;;;11.70;3.00;;;9.80;99.90;;;;;;5033615;28;20502;-49
2021/11/08 01:05:25;;;;;;;10.30;3.00;;;10.00;99.90;;;;;;5033862;28;20453;-50
2021/11/08 01:07:52;;;;;;;13.77;3.30;;;9.70;99.90;;;;;;5033569;28;20432;-50
2021/11/08 01:10:20;;;;;;;12.13;3.50;;;9.60;99.90;;;;;;5033903;28;20443;-50
2021/11/08 01:12:49;;;;;;;11.43;3.13;;;10.00;99.90;;;;;;5033639;28;20467;-50
2021/11/08 01:15:16;;;;;;;14.30;2.93;;;9.90;99.90;;;;;;5033617;28;20483;-50
2021/11/08 01:17:43;;;;;;;13.17;3.90;;;10.10;99.90;;;;;;5032169;28;20447;-50
2021/11/08 01:20:11;;;;;;;11.93;2.90;;;9.90;99.90;;;;;;5033627;28;20453;-50
2021/11/08 01:22:40;;;;;;;7.60;3.30;;;9.90;99.90;;;;;;5033574;28;20456;-50
2021/11/08 01:25:09;;;;;;;11.23;3.73;;;9.50;99.90;;;;;;5033627;28;20436;-50
2021/11/08 01:27:40;;;;;;;9.03;3.13;;;9.90;99.90;;;;;;5033378;28;20431;-50
2021/11/08 01:30:13;;;;;;;10.30;2.80;;;9.90;99.90;;;;;;5033489;28;20450;-50
2021/11/08 01:32:40;;;;;;;11.63;3.40;;;10.00;99.90;;;;;;5033282;28;20467;-49
2021/11/08 01:35:08;;;;;;;10.27;3.03;;;9.90;99.90;;;;;;5033269;28;20472;-50
2021/11/08 01:37:36;;;;;;;9.67;2.80;;;9.90;99.90;;;;;;5033332;28;20439;-48
2021/11/08 01:40:05;;;;;;;8.97;3.63;;;9.90;99.90;;;;;;5033173;28;20439;-48
2021/11/08 01:42:31;;;;;;;13.47;3.30;;;9.90;99.90;;;;;;5033155;28;20451;-49
2021/11/08 01:44:59;;;;;;;7.87;2.73;;;9.90;99.90;;;;;;5033191;28;20435;-49
2021/11/08 01:47:28;;;;;;;14.10;3.50;;;10.10;99.90;;;;;;5032441;28;20443;-49
2021/11/08 01:49:54;;;;;;;13.80;4.50;;;9.70;99.90;;;;;;5032926;28;20442;-49
2021/11/08 01:52:21;;;;;;;14.17;3.00;;;9.90;99.90;;;;;;5033030;28;20463;-49
2021/11/08 01:54:48;;;;;;;8.67;3.07;;;9.90;99.90;;;;;;5033101;28;20435;-49
2021/11/08 01:57:14;;;;;;;12.83;3.07;;;9.90;99.90;;;;;;5032909;28;20487;-50
2021/11/08 01:59:43;;;;;;;15.00;3.83;;;9.60;99.90;;;;;;5031315;28;20458;-49
2021/11/08 02:02:10;;;;;;;15.23;3.73;;;9.90;99.90;;;;;;5032827;28;20966;-49
2021/11/08 02:04:38;;;;;;;11.53;3.20;;;10.00;99.90;;;;;;5032767;28;20436;-49
2021/11/08 02:07:05;;;;;;;14.47;3.30;;;10.00;99.90;;;;;;5032809;28;20421;-49
2021/11/08 02:09:31;;;;;;;12.10;3.10;;;10.10;99.90;;;;;;5034050;28;20443;-49
2021/11/08 02:11:58;;;;;;;12.23;3.17;;;9.90;99.90;;;;;;5035312;28;20459;-49
2021/11/08 02:14:25;;;;;;;11.43;3.07;;;9.70;99.90;;;;;;5032673;28;20428;-49
2021/11/08 02:16:52;;;;;;;8.00;3.10;;;9.90;99.90;;;;;;5032457;28;20483;-49
2021/11/08 02:19:19;;;;;;;14.93;3.23;;;10.10;99.90;;;;;;5032069;28;20436;-49
2021/11/08 02:21:47;;;;;;;9.83;2.93;;;10.30;99.90;;;;;;5032287;28;21006;-50
2021/11/08 02:24:18;;;;;;;20.90;3.70;;;10.30;99.90;;;;;;5032395;28;21032;-49
2021/11/08 02:26:45;;;;;;;12.37;3.47;;;9.60;99.90;;;;;;5032417;28;20439;-50
2021/11/08 02:29:13;;;;;;;10.40;2.47;;;9.70;99.90;;;;;;5031961;28;20468;-50
2021/11/08 02:31:40;;;;;;;11.93;2.53;;;9.50;99.90;;;;;;5031992;28;20467;-49
2021/11/08 02:34:06;;;;;;;13.10;3.13;;;10.20;99.90;;;;;;5032208;28;20497;-49
2021/11/08 02:36:34;;;;;;;9.10;3.07;;;9.90;99.90;;;;;;5032162;28;20569;-50
2021/11/08 02:39:03;;;;;;;9.33;3.13;;;9.50;99.90;;;;;;5031969;28;20439;-49
2021/11/08 02:41:30;;;;;;;9.23;2.87;;;9.70;99.90;;;;;;5032279;28;20823;-49
2021/11/08 02:43:58;;;;;;;9.47;3.17;;;9.60;99.90;;;;;;5032213;28;20432;-52
2021/11/08 02:46:26;;;;;;;12.70;3.83;;;9.90;99.90;;;;;;5032407;28;20455;-48
2021/11/08 02:48:57;;;;;;;17.17;3.67;;;9.90;99.90;;;;;;5031788;28;20440;-49
2021/11/08 02:51:25;;;;;;;11.30;2.90;;;9.90;99.90;;;;;;5032046;28;20459;-49
2021/11/08 02:53:58;;;;;;;10.57;3.53;;;9.90;99.90;;;;;;5030752;28;20509;-48
2021/11/08 02:56:26;;;;;;;14.83;3.90;;;9.50;99.90;;;;;;5031942;28;20899;-49
2021/11/08 02:58:53;;;;;;;14.70;3.43;;;10.10;99.90;;;;;;5031377;28;20493;-50
2021/11/08 03:01:22;;;;;;;12.83;4.00;;;10.00;99.90;;;;;;5031657;28;20433;-49
2021/11/08 03:03:52;;;;;;;18.83;3.40;;;10.20;99.90;;;;;;5031906;28;20432;-49
2021/11/08 03:06:24;;;;;;;10.50;4.10;;;9.90;99.90;;;;;;5032070;28;21007;-50
2021/11/08 03:08:51;;;;;;;15.20;3.93;;;10.20;99.90;;;;;;5031449;28;20440;-49
2021/11/08 03:11:19;;;;;;;13.07;3.67;;;9.90;99.90;;;;;;5031814;28;20451;-49
2021/11/08 03:13:55;;;;;;;12.50;3.50;;;9.90;99.90;;;;;;5031737;28;20960;-49
2021/11/08 03:16:26;;;;;;;14.90;4.50;;;9.90;99.90;;;;;;5031729;28;20487;-50
2021/11/08 03:18:57;;;;;;;9.97;4.70;;;10.30;99.90;;;;;;5031548;28;20795;-49
2021/11/08 03:21:26;;;;;;;12.20;4.40;;;9.80;99.90;;;;;;5031699;28;20847;-49
2021/11/08 03:23:56;;;;;;;14.63;4.57;;;9.90;99.90;;;;;;5031708;28;20765;-49
2021/11/08 03:26:38;;;;;;;9.27;4.63;;;9.90;99.90;;;;;;5031871;28;20762;-48
2021/11/08 03:29:07;;;;;;;13.10;4.57;;;9.90;99.90;;;;;;5034575;28;20445;-49
2021/11/08 03:31:35;;;;;;;10.67;5.63;;;10.00;99.90;;;;;;5032191;28;20483;-49
2021/11/08 03:34:02;;;;;;;10.60;4.40;;;9.80;99.90;;;;;;5032183;28;20783;-49
2021/11/08 03:36:30;;;;;;;13.83;5.37;;;10.20;99.90;;;;;;5031017;28;20467;-49
2021/11/08 03:38:57;;;;;;;11.97;6.53;;;9.90;99.90;;;;;;5031661;28;20804;-49
2021/11/08 03:41:23;;;;;;;12.83;6.23;;;9.90;99.90;;;;;;5032021;28;20463;-49
2021/11/08 03:43:50;;;;;;;9.83;6.03;;;9.90;99.90;;;;;;5031788;28;20431;-48
2021/11/08 03:46:18;;;;;;;12.33;6.53;;;9.60;99.90;;;;;;5031767;28;20434;-49
2021/11/08 03:48:45;;;;;;;10.57;6.50;;;10.00;99.90;;;;;;5031271;28;20443;-49
2021/11/08 03:51:12;;;;;;;14.00;6.40;;;10.20;99.90;;;;;;5030418;28;21053;-49
2021/11/08 03:53:39;;;;;;;17.33;7.03;;;9.90;99.90;;;;;;5031444;28;20432;-49
2021/11/08 03:56:07;;;;;;;14.90;6.97;;;9.80;99.90;;;;;;5031372;28;20499;-50
2021/11/08 03:58:33;;;;;;;16.60;7.30;;;9.90;99.90;;;;;;5031102;28;20443;-50
2021/11/08 04:01:01;;;;;;;17.13;8.27;;;10.00;99.90;;;;;;5031233;28;20956;-50
2021/11/08 04:03:30;;;;;;;18.00;9.67;;;9.90;99.90;;;;;;5031491;28;20439;-48
2021/11/08 04:05:57;;;;;;;11.10;8.33;;;10.00;99.90;;;;;;5031351;28;20410;-48
2021/11/08 04:08:25;;;;;;;13.50;9.10;;;9.90;99.90;;;;;;5031216;28;20455;-48
2021/11/08 04:10:54;;;;;;;21.20;10.77;;;10.00;99.90;;;;;;5031942;28;20462;-49
2021/11/08 04:13:22;;;;;;;17.40;9.00;;;9.50;99.90;;;;;;5034874;28;20465;-50
2021/11/08 04:15:50;;;;;;;13.07;10.33;;;10.00;99.90;;;;;;5034727;28;20450;-50
2021/11/08 04:18:19;;;;;;;13.70;9.80;;;9.60;99.90;;;;;;5034211;28;20430;-50
2021/11/08 04:20:49;;;;;;;16.13;8.90;;;10.10;99.90;;;;;;5034820;28;20443;-50
2021/11/08 04:23:19;;;;;;;18.23;8.87;;;9.50;99.90;;;;;;5034954;28;20951;-50
2021/11/08 04:25:46;;;;;;;19.90;9.43;;;10.20;99.90;;;;;;5034828;28;20924;-50
2021/11/08 04:28:13;;;;;;;15.83;7.40;;;10.10;99.90;;;;;;5034082;28;20536;-50
2021/11/08 04:30:43;;;;;;;13.90;6.63;;;9.80;99.90;;;;;;5034422;28;20439;-50
2021/11/08 04:33:16;;;;;;;19.87;6.37;;;10.00;99.90;;;;;;5034540;28;20443;-50
2021/11/08 04:35:50;;;;;;;12.67;5.50;;;10.00;99.90;;;;;;5034355;28;20410;-50
2021/11/08 04:38:29;;;;;;;18.10;5.93;;;9.70;99.90;;;;;;5034141;28;20427;-49
2021/11/08 04:41:06;;;;;;;13.50;5.97;;;10.00;99.90;;;;;;5034392;28;20467;-50
2021/11/08 04:43:46;;;;;;;10.37;4.67;;;10.00;99.90;;;;;;5034330;28;20410;-50
2021/11/08 04:46:36;;;;;;;7.97;4.57;;;9.70;99.90;;;;;;5035401;28;20522;-49
2021/11/08 04:49:12;;;;;;;13.30;4.23;;;10.00;99.90;;;;;;5035869;28;20447;-49
2021/11/08 04:51:48;;;;;;;9.53;4.30;;;10.00;99.90;;;;;;5034091;28;20455;-49
2021/11/08 04:54:24;;;;;;;14.10;4.07;;;10.00;99.90;;;;;;5034150;28;20529;-49
2021/11/08 05:21:58;;;;;;;14.53;4.63;;;9.70;99.90;;;;;;5033386;28;20462;-48
2021/11/08 05:24:35;;;;;;;12.60;4.40;;;10.20;99.90;;;;;;5033437;28;20427;-50
2021/11/08 05:29:56;;;;;;;10.93;5.20;;;10.00;99.90;;;;;;5033232;28;20431;-49
2021/11/08 05:32:25;;;;;;;10.10;4.17;;;10.20;99.90;;;;;;5033390;28;20636;-49
2021/11/08 05:34:52;;;;;;;13.83;4.97;;;10.20;99.90;;;;;;5033150;28;20435;-49
2021/11/08 05:37:21;;;;;;;11.87;4.17;;;10.20;99.90;;;;;;5033444;28;20472;-49
2021/11/08 05:39:50;;;;;;;10.97;3.77;;;10.10;99.90;;;;;;5032755;28;20847;-49
2021/11/08 05:42:19;;;;;;;20.30;5.13;;;9.70;99.90;;;;;;5033192;28;20562;-49
2021/11/08 05:44:46;;;;;;;12.23;4.57;;;10.10;99.90;;;;;;5033332;28;20522;-49
2021/11/08 05:47:12;;;;;;;18.40;5.10;;;10.10;99.90;;;;;;5033181;28;20438;-49
2021/11/08 05:49:40;;;;;;;14.33;4.43;;;9.90;99.90;;;;;;5031334;28;20450;-49
2021/11/08 05:52:07;;;;;;;12.07;4.17;;;9.80;99.90;;;;;;5032829;28;20495;-50
2021/11/08 05:54:34;;;;;;;14.97;5.03;;;10.10;99.90;;;;;;5031245;28;20505;-49
2021/11/08 05:57:31;;;;;;;12.90;4.30;;;10.20;99.90;;;;;;5032773;28;20475;-48
2021/11/08 06:49:23;;;;;;;15.70;5.10;;;10.90;99.90;;;;;;5030976;28;20442;-50
2021/11/08 06:51:51;;;;;;;15.10;4.50;;;10.50;99.90;;;;;;5029092;28;20486;-50
2021/11/08 06:54:18;;;;;;;9.40;4.23;;;10.90;99.90;;;;;;5031389;28;20440;-50
2021/11/08 06:56:50;;;;;;;11.60;4.43;;;10.60;99.90;;;;;;5030532;28;20467;-50
2021/11/08 06:59:17;;;;;;;13.33;4.23;;;10.30;99.90;;;;;;5030833;28;20936;-51
2021/11/08 07:01:47;;;;;;;13.33;4.47;;;10.10;99.90;;;;;;5030875;28;20985;-51
2021/11/08 07:04:14;;;;;;;16.53;4.00;;;10.70;99.90;;;;;;5031186;28;20427;-50
2021/11/08 07:06:42;;;;;;;10.27;4.50;;;10.60;99.90;;;;;;5030972;28;20462;-50
2021/11/08 07:09:09;;;;;;;11.00;3.47;;;10.90;99.90;;;;;;5030575;28;20414;-50
2021/11/08 07:11:38;;;;;;;12.57;4.20;;;10.10;99.90;;;;;;5030811;28;20450;-50
2021/11/08 07:14:05;;;;;;;9.17;3.50;;;10.60;99.90;;;;;;5030869;28;20530;-50
2021/11/08 07:16:31;;;;;;;18.67;5.03;;;10.60;99.90;;;;;;5031232;28;20445;-50
2021/11/08 07:18:58;;;;;;;15.00;4.87;;;11.00;99.90;;;;;;5030854;28;20432;-50
2021/11/08 07:21:24;;;;;;;12.23;3.90;;;11.10;99.90;;;;;;5030657;28;20447;-50
2021/11/08 07:23:52;;;;;;;13.13;6.20;;;10.60;99.90;;;;;;5030330;28;20531;-50
2021/11/08 07:26:19;;;;;;;11.50;4.47;;;10.70;99.90;;;;;;5030590;28;20436;-51
2021/11/08 07:28:46;;;;;;;14.93;4.23;;;10.80;99.90;;;;;;5030758;28;20446;-50
2021/11/08 07:31:13;;;;;;;8.00;3.67;;;11.20;99.90;;;;;;5029465;28;20452;-51
2021/11/08 07:33:40;;;;;;;14.10;4.40;;;10.70;99.90;;;;;;5030405;28;20570;-51
2021/11/08 07:36:07;;;;;;;12.70;4.50;;;10.30;99.90;;;;;;5030878;28;20435;-51
2021/11/08 07:38:35;;;;;;;10.10;4.27;;;11.00;99.90;;;;;;5029638;28;20475;-51
2021/11/08 07:41:07;;;;;;;7.97;3.50;;;11.00;99.90;;;;;;5030578;28;21022;-50
2021/11/08 07:43:35;;;;;;;11.07;3.90;;;10.80;99.90;;;;;;5030842;28;20466;-50
2021/11/08 07:46:02;;;;;;;13.73;4.40;;;10.80;99.90;;;;;;5030815;28;20950;-51
2021/11/08 07:48:29;;;;;;;8.83;3.83;;;10.80;99.90;;;;;;5034832;28;20446;-51
2021/11/08 07:50:55;;;;;;;9.80;4.20;;;11.00;99.90;;;;;;5034631;28;20436;-50
2021/11/08 07:53:22;;;;;;;11.10;4.17;;;11.10;99.90;;;;;;5034478;28;20467;-50
2021/11/08 07:55:49;;;;;;;16.00;5.80;;;11.10;99.90;;;;;;5034681;28;20440;-51
2021/11/08 07:58:17;;;;;;;12.50;3.50;;;11.00;99.90;;;;;;5032014;28;20486;-50
2021/11/08 08:00:45;;;;;;;11.37;3.93;;;11.10;99.90;;;;;;5034614;28;20464;-51
2021/11/08 08:03:11;;;;;;;15.87;4.33;;;11.30;99.90;;;;;;5033846;28;20456;-50
2021/11/08 08:05:39;;;;;;;13.10;4.17;;;10.60;99.90;;;;;;5033996;28;20444;-50
2021/11/08 08:08:06;;;;;;;8.70;3.27;;;10.90;99.90;;;;;;5034045;28;21099;-50
2021/11/08 08:10:33;;;;;;;9.00;3.30;;;10.90;99.90;;;;;;5032979;28;20902;-50
2021/11/08 08:13:00;;;;;;;7.80;3.30;;;11.00;99.90;;;;;;5034433;28;20452;-50
2021/11/08 08:15:28;;;;;;;9.93;3.70;;;11.50;99.90;;;;;;5034503;28;20439;-50
2021/11/08 08:17:56;;;;;;;9.60;4.03;;;11.40;99.90;;;;;;5033651;28;20484;-50
2021/11/08 08:20:24;;;;;;;13.67;4.03;;;11.10;99.90;;;;;;5034377;28;20545;-50
2021/11/08 08:22:51;;;;;;;11.93;3.80;;;11.20;99.90;;;;;;5033574;28;20456;-50
2021/11/08 08:25:19;;;;;;;9.80;3.70;;;10.90;99.90;;;;;;5033919;28;20443;-51
2021/11/08 08:27:46;;;;;;;12.80;4.00;;;11.00;99.90;;;;;;5032271;28;20440;-50
2021/11/08 08:30:13;;;;;;;18.00;5.00;;;11.40;99.90;;;;;;5034159;28;20435;-50
2021/11/08 08:32:41;;;;;;;8.60;3.80;;;11.30;99.90;;;;;;5032277;28;20504;-50
2021/11/08 08:35:10;;;;;;;14.23;4.30;;;11.00;99.90;;;;;;5033705;28;20431;-50
2021/11/08 08:37:36;;;;;;;7.70;4.10;;;11.40;99.90;;;;;;5033110;28;20480;-51
2021/11/08 08:40:05;;;;;;;8.67;3.43;;;11.00;99.90;;;;;;5033652;28;20439;-51
2021/11/08 08:42:31;;;;;;;6.27;2.83;;;11.70;99.90;;;;;;5034169;28;20464;-51
2021/11/08 08:44:58;;;;;;;12.30;4.23;;;11.50;99.90;;;;;;5033379;28;20407;-50
2021/11/08 08:47:25;;;;;;;7.40;3.00;;;11.30;99.90;;;;;;5033774;28;20433;-51
2021/11/08 08:49:53;;;;;;;11.90;3.70;;;11.60;99.90;;;;;;5033459;28;20893;-51
2021/11/08 08:52:20;;;;;;;10.87;3.20;;;11.80;99.90;;;;;;5033549;28;20453;-50
2021/11/08 08:54:47;;;;;;;10.43;2.80;;;11.80;99.90;;;;;;5031625;28;20438;-50
2021/11/08 08:57:14;;;;;;;9.20;2.90;;;11.70;99.90;;;;;;5031725;28;20482;-51
2021/11/08 08:59:42;;;;;;;10.57;3.87;;;12.00;99.90;;;;;;5032496;28;20811;-51
2021/11/08 09:02:09;;;;;;;10.50;3.50;;;11.50;99.90;;;;;;5032427;28;20480;-51
2021/11/08 09:04:37;;;;;;;9.10;3.20;;;12.00;99.90;;;;;;5033148;28;20451;-50
2021/11/08 09:07:05;;;;;;;7.27;3.27;;;11.50;99.90;;;;;;5033146;28;20440;-51
2021/11/08 09:09:32;;;;;;;8.03;2.63;;;11.50;99.90;;;;;;5032698;28;20446;-51
2021/11/08 09:11:59;;;;;;;7.70;4.07;;;11.90;99.90;;;;;;5033017;28;20463;-51
2021/11/08 09:14:27;;;;;;;10.20;3.67;;;11.60;99.90;;;;;;5033112;28;20456;-51
2021/11/08 09:16:54;;;;;;;9.17;2.60;;;11.50;99.90;;;;;;5031786;28;20532;-51
2021/11/08 09:19:21;;;;;;;12.03;3.17;;;11.60;99.90;;;;;;5032752;28;20448;-51
2021/11/08 09:21:48;;;;;;;7.37;2.83;;;11.60;99.90;;;;;;5033130;28;20487;-51
2021/11/08 09:24:17;;;;;;;10.20;3.20;;;11.80;99.90;;;;;;5033079;28;20447;-51
2021/11/08 09:26:44;;;;;;;11.17;3.83;;;11.30;99.90;;;;;;5031225;28;20464;-51
2021/11/08 09:29:11;;;;;;;11.60;3.87;;;11.90;99.90;;;;;;5035298;28;20441;-50
2021/11/08 09:31:37;;;;;;;13.90;3.80;;;11.20;99.90;;;;;;5032924;28;20437;-51
2021/11/08 09:34:08;;;;;;;13.87;3.27;;;11.50;99.90;;;;;;5033052;28;20439;-51
2021/11/08 09:36:37;;;;;;;9.67;3.47;;;11.20;99.90;;;;;;5032715;28;20451;-50
2021/11/08 09:39:10;;;;;;;8.73;3.50;;;11.50;99.90;;;;;;5031880;28;21061;-51
2021/11/08 09:41:39;;;;;;;10.13;3.60;;;11.50;99.90;;;;;;5032500;28;20445;-51
2021/11/08 09:44:08;;;;;;;14.47;3.40;;;11.30;99.90;;;;;;5032519;28;20845;-51
2021/11/08 09:46:35;;;;;;;11.73;3.70;;;11.10;99.90;;;;;;5032131;28;20429;-51
2021/11/08 09:49:04;;;;;;;13.23;3.50;;;11.60;99.90;;;;;;5032049;28;20505;-50
2021/11/08 09:51:36;;;;;;;8.00;3.97;;;11.50;99.90;;;;;;5032222;28;20448;-51
2021/11/08 09:54:04;;;;;;;8.23;3.23;;;11.60;99.90;;;;;;5032387;28;20512;-52
2021/11/08 09:56:32;;;;;;;10.93;3.97;;;12.10;99.90;;;;;;5032052;28;20441;-52
2021/11/08 09:59:01;;;;;;;12.63;4.67;;;11.60;99.90;;;;;;5031857;28;20487;-51
2021/11/08 10:01:31;;;;;;;9.40;3.43;;;12.00;99.90;;;;;;5032033;28;20522;-52
2021/11/08 10:03:58;;;;;;;12.03;4.17;;;11.80;99.90;;;;;;5031827;28;20479;-52
2021/11/08 10:06:26;;;;;;;6.63;3.10;;;11.70;99.90;;;;;;5031754;28;20442;-52
2021/11/08 10:08:54;;;;;;;14.70;5.63;;;11.30;99.90;;;;;;5030647;28;20449;-52
2021/11/08 10:11:22;;;;;;;11.20;4.40;;;12.10;99.90;;;;;;5031606;28;20467;-52
2021/11/08 10:13:49;;;;;;;10.13;3.60;;;11.90;99.90;;;;;;5031803;28;20447;-52
2021/11/08 10:16:20;;;;;;;12.97;4.60;;;11.80;99.90;;;;;;5031719;28;20451;-51
2021/11/08 10:18:49;;;;;;;9.77;3.80;;;11.30;99.90;;;;;;5031607;28;20476;-52
2021/11/08 10:21:19;;;;;;;12.30;4.20;;;11.50;99.90;;;;;;5031645;28;20528;-51
2021/11/08 10:23:48;;;;;;;11.23;4.23;;;12.00;99.90;;;;;;5031293;28;20437;-51
2021/11/08 10:26:19;;;;;;;8.47;3.73;;;11.70;99.90;;;;;;5031944;28;20445;-51
2021/11/08 10:28:51;;;;;;;8.10;2.90;;;11.90;99.90;;;;;;5031330;28;20434;-52
2021/11/08 10:31:19;;;;;;;10.83;3.80;;;12.00;99.90;;;;;;5031965;28;20486;-52
2021/11/08 10:33:46;;;;;;;11.17;3.07;;;12.20;99.90;;;;;;5031611;28;20823;-52
2021/11/08 10:36:15;;;;;;;9.97;3.50;;;12.10;99.90;;;;;;5031378;28;20513;-51
2021/11/08 10:38:43;;;;;;;8.77;3.83;;;12.00;99.90;;;;;;5031108;28;20487;-51
2021/11/08 10:41:14;;;;;;;10.97;3.43;;;12.10;99.90;;;;;;5031363;28;20821;-52
2021/11/08 10:43:43;;;;;;;23.07;3.90;;;11.60;99.90;;;;;;5031037;28;20836;-52
2021/11/08 10:46:13;;;;;;;11.43;3.77;;;12.00;99.90;;;;;;5031385;28;20499;-51
2021/11/08 10:48:44;;;;;;;9.17;2.87;;;12.00;99.90;;;;;;5030964;28;20470;-51
2021/11/08 10:51:13;;;;;;;15.13;3.90;;;12.20;99.90;;;;;;5031920;28;20793;-52
2021/11/08 10:53:49;;;;;;;13.97;4.87;;;12.00;99.90;;;;;;5031346;28;20467;-52
2021/11/08 10:56:21;;;;;;;14.30;7.47;;;12.10;99.90;;;;;;5030957;28;20451;-51
2021/11/08 10:58:48;;;;;;;15.30;5.17;;;12.20;99.90;;;;;;5030492;28;20526;-51
2021/11/08 11:01:24;;;;;;;12.77;4.57;;;12.30;99.90;;;;;;5030849;28;20446;-52
2021/11/08 11:03:53;;;;;;;13.30;4.80;;;12.40;99.90;;;;;;5031315;28;20460;-52
2021/11/08 11:06:22;;;;;;;6.70;4.13;;;12.80;99.90;;;;;;5030982;28;20429;-51
2021/11/08 11:08:51;;;;;;;13.10;4.73;;;12.50;99.90;;;;;;5030818;28;20508;-51
2021/11/08 11:11:23;;;;;;;15.10;4.83;;;12.10;99.90;;;;;;5031068;28;20828;-52
2021/11/08 11:13:52;;;;;;;13.50;5.00;;;12.90;99.90;;;;;;5030888;28;20475;-52
2021/11/08 11:16:31;;;;;;;17.87;5.20;;;12.30;99.90;;;;;;5030949;28;20434;-52
2021/11/08 11:19:01;;;;;;;18.63;5.00;;;12.60;99.90;;;;;;5030492;28;20949;-51
2021/11/08 11:21:28;;;;;;;18.00;4.20;;;12.60;99.90;;;;;;5036809;28;20790;-51
2021/11/08 11:24:01;;;;;;;13.50;3.80;;;12.60;99.90;;;;;;5037061;28;20446;-52
2021/11/08 11:26:30;;;;;;;13.50;6.07;;;12.60;99.90;;;;;;5037364;28;20453;-52
2021/11/08 11:28:58;;;;;;;13.20;3.73;;;12.80;99.90;;;;;;5037148;28;20434;-52
2021/11/08 11:31:27;;;;;;;12.40;3.63;;;12.30;99.90;;;;;;5037144;28;20444;-51
2021/11/08 11:33:58;;;;;;;11.40;3.53;;;12.90;99.90;;;;;;5037240;28;20448;-51
2021/11/08 11:36:29;;;;;;;9.97;4.40;;;12.90;99.90;;;;;;5037009;28;20445;-52
2021/11/08 11:38:59;;;;;;;9.07;3.60;;;12.90;99.90;;;;;;5037120;28;20546;-52
2021/11/08 11:41:30;;;;;;;13.07;3.60;;;13.00;99.90;;;;;;5037698;28;20783;-52
2021/11/08 11:43:59;;;;;;;17.43;4.30;;;13.10;99.90;;;;;;5037617;28;20457;-52
2021/11/08 11:46:28;;;;;;;11.27;4.10;;;13.10;99.90;;;;;;5037648;28;20429;-52
2021/11/08 11:48:57;;;;;;;12.70;3.17;;;12.70;99.90;;;;;;5037037;28;20433;-52
2021/11/08 11:51:27;;;;;;;9.80;3.67;;;13.00;99.90;;;;;;5037349;28;20433;-51
2021/11/08 11:53:55;;;;;;;14.37;3.53;;;13.00;99.90;;;;;;5037615;28;20438;-52
2021/11/08 11:56:24;;;;;;;10.13;3.80;;;12.50;99.90;;;;;;5037289;28;20440;-52
2021/11/08 11:58:51;;;;;;;11.80;3.63;;;12.90;99.90;;;;;;5036784;28;21014;-52
2021/11/08 12:01:22;;;;;;;12.70;3.23;;;13.00;99.90;;;;;;5037395;28;20985;-52
2021/11/08 12:03:51;;;;;;;10.03;3.30;;;13.10;99.90;;;;;;5036880;28;20456;-52
2021/11/08 12:06:22;;;;;;;12.70;4.23;;;13.10;99.90;;;;;;5037190;28;20935;-52
2021/11/08 12:08:54;;;;;;;11.70;4.80;;;12.90;99.90;;;;;;5036548;28;20945;-52
2021/11/08 12:11:29;;;;;;;10.63;3.57;;;13.10;99.90;;;;;;5036992;28;20833;-52
2021/11/08 12:13:58;;;;;;;13.00;3.40;;;13.20;99.90;;;;;;5037185;28;20787;-52
2021/11/08 12:16:28;;;;;;;5.57;2.33;;;13.10;99.90;;;;;;5036973;28;20441;-52
2021/11/08 12:18:56;;;;;;;10.93;3.83;;;12.80;99.90;;;;;;5036649;28;20477;-52
2021/11/08 12:21:25;;;;;;;12.10;2.90;;;13.10;99.90;;;;;;5037060;28;20782;-52
2021/11/08 12:23:56;;;;;;;10.57;2.93;;;13.00;99.90;;;;;;5036730;28;20446;-52
2021/11/08 12:26:25;;;;;;;9.70;3.43;;;13.00;99.90;;;;;;5036696;28;20505;-52
2021/11/08 12:28:52;;;;;;;12.50;3.07;;;13.00;99.90;;;;;;5036212;28;20456;-52
2021/11/08 12:31:21;;;;;;;11.47;3.30;;;13.00;99.90;;;;;;5035452;28;20455;-52
2021/11/08 12:34:00;;;;;;;10.27;3.27;;;13.10;99.90;;;;;;5033977;28;20486;-51
2021/11/08 12:36:27;;;;;;;12.47;4.60;;;13.00;99.90;;;;;;5033455;28;20995;-51
2021/11/08 12:38:58;;;;;;;8.17;2.87;;;13.20;99.90;;;;;;5032931;28;20929;-51
2021/11/08 12:41:34;;;;;;;12.13;3.73;;;12.90;99.90;;;;;;5032718;28;20445;-51
2021/11/08 12:44:07;;;;;;;11.90;2.90;;;13.10;99.90;;;;;;5033493;28;20442;-52
2021/11/08 12:46:38;;;;;;;9.27;3.03;;;13.10;99.90;;;;;;5033125;28;20457;-50
2021/11/08 12:49:12;;;;;;;11.50;4.10;;;13.00;99.90;;;;;;5033412;28;20442;-50
2021/11/08 12:51:40;;;;;;;6.67;3.47;;;12.70;99.90;;;;;;5033116;28;20463;-51
2021/11/08 12:54:11;;;;;;;12.10;3.57;;;12.80;99.90;;;;;;5033453;28;20439;-51
2021/11/08 12:56:43;;;;;;;8.07;2.60;;;13.00;99.90;;;;;;5032932;28;20446;-51
2021/11/08 12:59:15;;;;;;;10.20;2.80;;;13.00;99.90;;;;;;5032514;28;20474;-50
2021/11/08 13:01:43;;;;;;;15.27;3.70;;;12.80;99.90;;;;;;5047945;28;20486;-51
2021/11/08 13:04:12;;;;;;;11.13;3.40;;;12.90;99.90;;;;;;5033379;28;20481;-52
2021/11/08 13:06:40;;;;;;;11.20;3.20;;;12.90;99.90;;;;;;5033087;28;20468;-52
2021/11/08 13:09:11;;;;;;;14.90;3.13;;;12.60;99.90;;;;;;5032980;28;20947;-52
2021/11/08 13:11:43;;;;;;;10.00;3.00;;;12.80;99.90;;;;;;5032420;28;20439;-52
2021/11/08 13:14:20;;;;;;;15.67;3.40;;;12.90;99.90;;;;;;5032800;28;20469;-52
2021/11/08 13:16:48;;;;;;;12.30;3.00;;;12.80;99.90;;;;;;5033006;28;20434;-52
2021/11/08 13:19:17;;;;;;;11.60;3.00;;;12.90;99.90;;;;;;5032891;28;20865;-52
2021/11/08 13:21:44;;;;;;;9.27;3.57;;;13.30;99.90;;;;;;5032435;28;20461;-51
2021/11/08 13:24:14;;;;;;;9.17;2.80;;;12.80;99.90;;;;;;5032867;28;20435;-51
2021/11/08 13:26:42;;;;;;;8.40;3.13;;;13.00;99.90;;;;;;5032391;28;20582;-51
2021/11/08 13:29:15;;;;;;;12.47;3.20;;;13.10;99.90;;;;;;5032860;28;20489;-51
2021/11/08 13:31:42;;;;;;;10.53;3.10;;;13.20;99.90;;;;;;5032158;28;20467;-51
2021/11/08 13:34:09;;;;;;;7.63;2.50;;;13.10;99.90;;;;;;5032433;28;20859;-51
2021/11/08 13:36:36;;;;;;;15.00;3.17;;;13.10;99.90;;;;;;5032367;28;20430;-52
2021/11/08 13:39:03;;;;;;;6.90;3.00;;;13.00;99.90;;;;;;5031485;28;20953;-51
2021/11/08 13:41:33;;;;;;;7.47;3.33;;;13.40;99.90;;;;;;5031823;28;20946;-51
2021/11/08 13:44:03;;;;;;;11.73;2.47;;;13.40;99.90;;;;;;5031047;28;20534;-51
2021/11/08 13:46:34;;;;;;;7.23;3.30;;;12.90;99.90;;;;;;5031665;28;20438;-51
2021/11/08 13:49:03;;;;;;;9.27;3.87;;;12.90;99.90;;;;;;5031752;28;20454;-51
2021/11/08 13:51:32;;;;;;;8.93;3.07;;;12.90;99.90;;;;;;5031751;28;20434;-51
2021/11/08 13:54:00;;;;;;;8.70;3.10;;;13.10;99.90;;;;;;5030607;28;20978;-50
2021/11/08 13:56:35;;;;;;;9.17;2.93;;;12.90;99.90;;;;;;5031566;28;20447;-51
2021/11/08 13:59:04;;;;;;;9.53;2.50;;;12.90;99.90;;;;;;5031008;28;20477;-51
2021/11/08 14:01:33;;;;;;;10.63;3.40;;;13.20;99.90;;;;;;5031373;28;20438;-52
2021/11/08 14:04:00;;;;;;;11.10;3.50;;;12.90;99.90;;;;;;5031848;28;20446;-50
2021/11/08 14:06:30;;;;;;;8.07;3.93;;;13.20;99.90;;;;;;5031481;28;20448;-51